createdAt,value
2018-08-20T00:04:34.694Z,17.99
2018-08-20T00:20:08.949Z,17.80
2018-08-20T00:35:43.263Z,17.33
2018-08-20T00:51:18.278Z,17.41
2018-08-20T01:06:52.836Z,17.67
2018-08-20T01:22:27.315Z,17.46
2018-08-20T01:38:03.038Z,17.70
2018-08-20T01:53:36.603Z,17.42
2018-08-20T02:09:11.087Z,16.94
2018-08-20T02:24:45.726Z,16.64
2018-08-20T02:40:21.565Z,16.65
2018-08-20T02:55:55.954Z,16.94
2018-08-20T03:11:30.749Z,16.87
2018-08-20T03:27:04.533Z,16.62
2018-08-20T03:42:38.379Z,16.58
2018-08-20T03:58:12.890Z,16.52
2018-08-20T04:13:47.471Z,17.60
2018-08-20T04:29:21.757Z,19.50
2018-08-20T04:44:56.517Z,21.31
2018-08-20T05:00:31.895Z,23.43
2018-08-20T05:16:07.549Z,25.10
2018-08-20T05:31:42.307Z,26.84
2018-08-20T05:47:16.193Z,27.75
2018-08-20T06:02:50.701Z,29.16
2018-08-20T06:18:25.090Z,30.92
2018-08-20T06:33:59.206Z,31.57
2018-08-20T06:49:33.651Z,32.43
2018-08-20T07:05:08.328Z,31.04
2018-08-20T07:20:42.373Z,31.27
2018-08-20T07:36:16.774Z,32.02
2018-08-20T07:51:51.267Z,30.63
2018-08-20T08:07:25.684Z,30.18
2018-08-20T08:23:00.516Z,29.88
2018-08-20T08:38:34.899Z,30.14
2018-08-20T08:54:09.322Z,29.97
2018-08-20T09:09:42.808Z,29.77
2018-08-20T09:25:18.505Z,30.58
2018-08-20T09:40:52.720Z,31.80
2018-08-20T09:56:27.258Z,32.96
2018-08-20T10:12:01.501Z,28.04
2018-08-20T10:27:36.117Z,27.13
2018-08-20T10:43:10.151Z,26.84
2018-08-20T10:58:44.417Z,26.49
2018-08-20T11:14:17.888Z,25.94
2018-08-20T11:29:51.758Z,26.34
2018-08-20T11:45:27.399Z,23.28
2018-08-20T12:01:02.161Z,16.22
2018-08-20T12:16:36.681Z,18.03
2018-08-20T12:32:10.964Z,19.05
2018-08-20T12:47:44.789Z,19.89
2018-08-20T13:03:28.469Z,20.55
2018-08-20T13:19:02.651Z,21.05
2018-08-20T13:34:37.015Z,21.66
2018-08-20T13:50:19.948Z,22.07
2018-08-20T14:05:54.504Z,22.32
2018-08-20T14:21:37.236Z,22.58
2018-08-20T14:53:06.792Z,22.15
2018-08-20T15:08:40.916Z,22.16
2018-08-20T15:24:14.113Z,22.30
2018-08-20T15:39:48.063Z,22.15
2018-08-20T15:55:22.530Z,22.02
2018-08-20T16:10:55.956Z,21.94
2018-08-20T16:26:30.634Z,21.98
2018-08-20T16:42:04.984Z,21.60
2018-08-20T16:57:38.292Z,21.01
2018-08-20T17:13:12.745Z,20.44
2018-08-20T17:28:47.523Z,20.27
2018-08-20T17:44:21.808Z,20.46
2018-08-20T17:59:56.240Z,20.18
2018-08-20T18:15:31.736Z,19.75
2018-08-20T18:31:12.918Z,19.83
2018-08-20T18:46:46.995Z,20.45
2018-08-20T19:02:26.490Z,20.76
2018-08-20T19:18:01.155Z,20.88
2018-08-20T19:33:37.671Z,20.89
2018-08-20T19:49:16.153Z,21.00
2018-08-20T20:04:50.908Z,20.92
2018-08-20T20:20:25.412Z,20.92
2018-08-20T20:36:00.074Z,20.84
2018-08-20T20:51:34.634Z,20.69
2018-08-20T21:07:08.654Z,20.43
2018-08-20T21:22:42.725Z,19.16
2018-08-20T21:38:17.297Z,18.27
2018-08-20T21:53:51.990Z,17.51
2018-08-20T22:09:24.974Z,17.15
2018-08-20T22:25:04.300Z,17.23
2018-08-20T22:40:38.772Z,16.76
2018-08-20T22:56:23.477Z,16.76
2018-08-20T23:12:03.938Z,16.80
2018-08-20T23:27:48.994Z,16.48
2018-08-20T23:43:23.045Z,16.25
2018-08-20T23:58:57.599Z,16.01
